Time;durP1;ratioP1;P1;durP2;ratioP2;P2;SDS_P1;SDS_P2;PMS_P1;PMS_P2;Temp;Humidity;BMP_temperature;BMP_pressure;BME280_temperature;BME280_humidity;BME280_pressure;Samples;Min_cycle;Max_cycle;Signal;HPM_P1;HPM_P2
2021/07/26 00:01:04;;;;;;;5.90;2.90;;;;;;;;;;5076493;28;20138;-59
2021/07/26 00:03:30;;;;;;;5.22;2.88;;;;;;;;;;5076418;28;20476;-59
2021/07/26 00:05:55;;;;;;;5.10;2.85;;;;;;;;;;5076362;28;20085;-59
2021/07/26 00:08:21;;;;;;;3.53;2.50;;;;;;;;;;5076469;28;20020;-59
2021/07/26 00:10:47;;;;;;;6.78;3.28;;;;;;;;;;5075931;28;20029;-59
2021/07/26 00:13:12;;;;;;;7.10;3.40;;;;;;;;;;5076759;28;20047;-59
2021/07/26 00:15:37;;;;;;;6.20;3.40;;;;;;;;;;5073881;28;20033;-59
2021/07/26 00:18:02;;;;;;;4.25;2.70;;;;;;;;;;5074892;28;20047;-59
2021/07/26 00:20:28;;;;;;;4.53;3.03;;;;;;;;;;5079272;28;20043;-59
2021/07/26 00:22:53;;;;;;;4.18;2.88;;;;;;;;;;5083258;28;20020;-59
2021/07/26 00:25:18;;;;;;;5.60;2.72;;;;;;;;;;5080557;28;20051;-59
2021/07/26 00:27:43;;;;;;;4.50;2.78;;;;;;;;;;5069173;28;20029;-59
2021/07/26 00:30:09;;;;;;;4.63;2.78;;;;;;;;;;5075852;28;20384;-58
2021/07/26 00:32:34;;;;;;;4.22;2.47;;;;;;;;;;5083808;28;20020;-58
2021/07/26 00:35:00;;;;;;;5.07;2.90;;;;;;;;;;5093846;28;20452;-58
2021/07/26 00:37:26;;;;;;;4.43;2.50;;;;;;;;;;5093105;28;20016;-59
2021/07/26 00:39:53;;;;;;;3.45;2.38;;;;;;;;;;5092451;28;20039;-58
2021/07/26 00:42:18;;;;;;;4.03;2.40;;;;;;;;;;5093496;28;20027;-58
2021/07/26 00:44:43;;;;;;;3.72;2.13;;;;;;;;;;5095489;28;20020;-59
2021/07/26 00:47:09;;;;;;;3.45;2.30;;;;;;;;;;5094274;28;20016;-59
2021/07/26 00:49:34;;;;;;;3.90;2.30;;;;;;;;;;5095871;28;20081;-59
2021/07/26 00:52:00;;;;;;;3.15;2.25;;;;;;;;;;5093881;28;20099;-59
2021/07/26 00:54:26;;;;;;;4.32;2.40;;;;;;;;;;5080723;28;20490;-59
2021/07/26 00:56:52;;;;;;;3.92;2.40;;;;;;;;;;5079039;28;20032;-59
2021/07/26 00:59:17;;;;;;;3.67;2.40;;;;;;;;;;5079258;28;20094;-59
2021/07/26 01:01:43;;;;;;;3.22;2.00;;;;;;;;;;5075300;28;20052;-59
2021/07/26 01:04:08;;;;;;;4.22;2.17;;;;;;;;;;5088342;28;20529;-59
2021/07/26 01:06:34;;;;;;;3.40;2.00;;;;;;;;;;5086680;28;20460;-59
2021/07/26 01:08:59;;;;;;;2.45;1.90;;;;;;;;;;5093535;28;20023;-59
2021/07/26 01:11:24;;;;;;;3.78;1.95;;;;;;;;;;5093739;28;20031;-59
2021/07/26 01:13:50;;;;;;;4.85;2.00;;;;;;;;;;5079194;28;20033;-59
2021/07/26 01:16:15;;;;;;;3.05;1.80;;;;;;;;;;5095051;28;20028;-59
2021/07/26 01:18:41;;;;;;;4.03;2.13;;;;;;;;;;5082651;28;20043;-59
2021/07/26 01:21:10;;;;;;;3.10;2.00;;;;;;;;;;5074722;28;20036;-59
2021/07/26 01:23:37;;;;;;;3.70;2.08;;;;;;;;;;5074356;28;20048;-59
2021/07/26 01:26:03;;;;;;;3.63;1.83;;;;;;;;;;5094509;28;20055;-59
2021/07/26 01:28:32;;;;;;;3.95;2.20;;;;;;;;;;5095340;28;20027;-59
2021/07/26 01:30:57;;;;;;;2.90;2.28;;;;;;;;;;5076081;28;20108;-59
2021/07/26 01:33:23;;;;;;;5.82;2.50;;;;;;;;;;5074135;28;20063;-59
2021/07/26 01:35:48;;;;;;;5.50;2.80;;;;;;;;;;5064278;28;20538;-60
2021/07/26 01:38:14;;;;;;;5.25;3.13;;;;;;;;;;5090370;28;20040;-59
2021/07/26 01:40:40;;;;;;;3.67;2.75;;;;;;;;;;5092959;28;20387;-59
2021/07/26 01:43:10;;;;;;;4.78;2.90;;;;;;;;;;5094926;28;20028;-59
2021/07/26 01:45:36;;;;;;;4.38;2.95;;;;;;;;;;5077972;28;20024;-59
2021/07/26 01:48:03;;;;;;;4.55;2.95;;;;;;;;;;5075487;28;20040;-59
2021/07/26 01:50:29;;;;;;;5.15;2.95;;;;;;;;;;5074182;28;20016;-59
2021/07/26 01:52:55;;;;;;;3.88;2.45;;;;;;;;;;5074783;28;20047;-59
2021/07/26 01:55:20;;;;;;;7.60;3.50;;;;;;;;;;5080355;28;20468;-59
2021/07/26 01:57:45;;;;;;;4.05;2.75;;;;;;;;;;5092792;28;20495;-59
2021/07/26 02:00:11;;;;;;;4.68;2.28;;;;;;;;;;5094688;28;20115;-59
2021/07/26 02:02:36;;;;;;;4.78;2.53;;;;;;;;;;5093106;28;20027;-60
2021/07/26 02:05:02;;;;;;;6.65;3.00;;;;;;;;;;5082190;28;20031;-59
2021/07/26 02:07:27;;;;;;;6.45;3.45;;;;;;;;;;5073080;28;20027;-59
2021/07/26 02:09:52;;;;;;;6.68;2.70;;;;;;;;;;5094074;28;20052;-59
2021/07/26 02:12:18;;;;;;;5.65;2.92;;;;;;;;;;5094299;28;20030;-59
2021/07/26 02:14:43;;;;;;;3.38;2.08;;;;;;;;;;5087974;28;20418;-60
2021/07/26 02:17:08;;;;;;;3.40;2.20;;;;;;;;;;5092799;28;20055;-59
2021/07/26 02:19:34;;;;;;;4.30;2.25;;;;;;;;;;5083938;28;20134;-60
2021/07/26 02:21:59;;;;;;;4.43;2.40;;;;;;;;;;5081448;28;20074;-59
2021/07/26 02:24:24;;;;;;;4.70;2.20;;;;;;;;;;5078481;28;20028;-59
2021/07/26 02:26:49;;;;;;;5.55;2.45;;;;;;;;;;5073698;28;20087;-59
2021/07/26 02:29:15;;;;;;;6.18;2.28;;;;;;;;;;5087646;28;20067;-59
2021/07/26 02:31:40;;;;;;;4.25;2.30;;;;;;;;;;5081663;28;20078;-59
2021/07/26 02:34:05;;;;;;;4.30;2.17;;;;;;;;;;5081444;28;20085;-59
2021/07/26 02:36:30;;;;;;;4.22;2.50;;;;;;;;;;5086900;28;20396;-59
2021/07/26 02:38:56;;;;;;;3.85;2.40;;;;;;;;;;5076285;28;20036;-59
2021/07/26 02:41:21;;;;;;;4.03;2.80;;;;;;;;;;5091815;28;20027;-59
2021/07/26 02:43:46;;;;;;;4.18;2.58;;;;;;;;;;5078995;28;20032;-60
2021/07/26 02:46:12;;;;;;;3.95;2.53;;;;;;;;;;5093443;28;20565;-59
2021/07/26 02:48:38;;;;;;;5.20;2.70;;;;;;;;;;5090386;28;20020;-59
2021/07/26 02:51:03;;;;;;;4.53;2.35;;;;;;;;;;5081407;28;20063;-60
2021/07/26 02:53:29;;;;;;;2.72;1.80;;;;;;;;;;5088109;28;20027;-59
2021/07/26 02:55:54;;;;;;;5.53;2.30;;;;;;;;;;5078049;28;20017;-59
2021/07/26 02:58:22;;;;;;;3.15;2.00;;;;;;;;;;5083730;28;20388;-59
2021/07/26 03:00:48;;;;;;;4.53;2.00;;;;;;;;;;5075074;28;20027;-59
2021/07/26 03:03:13;;;;;;;3.65;2.10;;;;;;;;;;5093241;28;20016;-59
2021/07/26 03:05:38;;;;;;;5.38;2.65;;;;;;;;;;5068626;28;20027;-59
2021/07/26 03:08:03;;;;;;;7.55;2.80;;;;;;;;;;5091713;28;20476;-59
2021/07/26 03:10:29;;;;;;;5.30;2.40;;;;;;;;;;5076091;28;20021;-59
2021/07/26 03:12:54;;;;;;;10.63;2.75;;;;;;;;;;5073088;28;20041;-59
2021/07/26 03:15:21;;;;;;;8.18;3.00;;;;;;;;;;5079699;28;20435;-59
2021/07/26 03:17:46;;;;;;;6.22;3.42;;;;;;;;;;5080172;28;20058;-59
2021/07/26 03:20:12;;;;;;;7.70;3.47;;;;;;;;;;5085181;28;20040;-59
2021/07/26 03:22:50;;;;;;;9.02;3.30;;;;;;;;;;5072988;28;20536;-59
2021/07/26 03:25:15;;;;;;;4.63;2.80;;;;;;;;;;5077649;28;20491;-59
2021/07/26 03:27:40;;;;;;;5.20;2.95;;;;;;;;;;5087152;28;20024;-59
2021/07/26 03:30:06;;;;;;;7.68;2.80;;;;;;;;;;5083197;28;20016;-59
2021/07/26 03:32:31;;;;;;;5.15;2.67;;;;;;;;;;5084726;28;20032;-59
2021/07/26 03:34:56;;;;;;;5.95;3.00;;;;;;;;;;5082812;28;20100;-59
2021/07/26 03:37:22;;;;;;;6.88;2.90;;;;;;;;;;5082866;28;20020;-59
2021/07/26 03:39:47;;;;;;;5.15;2.85;;;;;;;;;;5072739;28;20400;-59
2021/07/26 03:42:12;;;;;;;4.72;2.85;;;;;;;;;;5066892;28;20020;-60
2021/07/26 03:44:37;;;;;;;4.72;3.10;;;;;;;;;;5078177;28;20020;-59
2021/07/26 03:47:03;;;;;;;4.57;2.80;;;;;;;;;;5072961;28;20024;-59
2021/07/26 03:49:28;;;;;;;4.95;2.78;;;;;;;;;;5092825;28;20032;-59
2021/07/26 03:51:53;;;;;;;6.57;3.10;;;;;;;;;;5092797;28;20024;-59
2021/07/26 03:54:18;;;;;;;4.93;2.88;;;;;;;;;;5075749;28;20052;-59
2021/07/26 03:56:44;;;;;;;5.15;3.10;;;;;;;;;;5081613;28;20133;-59
2021/07/26 03:59:09;;;;;;;5.47;3.23;;;;;;;;;;5087856;28;20036;-59
2021/07/26 04:01:34;;;;;;;5.55;2.90;;;;;;;;;;5084388;28;20262;-59
2021/07/26 04:03:59;;;;;;;5.25;2.42;;;;;;;;;;5090446;28;20012;-59
2021/07/26 04:06:25;;;;;;;4.43;2.33;;;;;;;;;;5091192;28;20418;-59
2021/07/26 04:08:52;;;;;;;5.45;2.70;;;;;;;;;;5086344;28;20016;-59
2021/07/26 04:11:24;;;;;;;3.67;2.40;;;;;;;;;;5072520;28;20112;-59
2021/07/26 04:14:04;;;;;;;6.53;2.63;;;;;;;;;;5081840;28;20021;-59
2021/07/26 04:16:30;;;;;;;5.47;2.60;;;;;;;;;;5081876;28;20019;-58
2021/07/26 04:18:56;;;;;;;3.55;2.53;;;;;;;;;;5081016;28;20020;-59
2021/07/26 04:21:28;;;;;;;8.73;2.30;;;;;;;;;;5084112;28;20027;-59
2021/07/26 04:23:53;;;;;;;6.53;2.83;;;;;;;;;;5076949;28;20017;-59
2021/07/26 04:26:18;;;;;;;4.50;2.80;;;;;;;;;;5056532;28;20161;-59
2021/07/26 04:28:44;;;;;;;4.75;2.75;;;;;;;;;;5062463;28;20013;-58
2021/07/26 04:31:09;;;;;;;3.35;2.55;;;;;;;;;;5062161;28;20017;-59
2021/07/26 04:33:34;;;;;;;4.97;2.70;;;;;;;;;;5062041;28;20040;-59
2021/07/26 04:36:01;;;;;;;3.33;2.58;;;;;;;;;;5062686;28;20020;-58
2021/07/26 04:38:26;;;;;;;7.47;2.75;;;;;;;;;;5063141;28;20024;-58
2021/07/26 04:40:51;;;;;;;6.13;2.92;;;;;;;;;;5059117;28;20036;-58
2021/07/26 04:43:17;;;;;;;5.43;3.15;;;;;;;;;;5064419;28;20034;-58
2021/07/26 04:45:42;;;;;;;6.28;2.85;;;;;;;;;;5054876;28;20453;-58
2021/07/26 04:48:07;;;;;;;5.20;2.67;;;;;;;;;;5055841;28;20400;-59
2021/07/26 04:50:33;;;;;;;6.97;2.55;;;;;;;;;;5055322;28;20684;-59
2021/07/26 04:52:58;;;;;;;4.13;2.60;;;;;;;;;;5055344;28;20079;-59
2021/07/26 04:55:24;;;;;;;5.15;2.83;;;;;;;;;;5060866;28;20086;-59
2021/07/26 04:57:51;;;;;;;7.25;3.08;;;;;;;;;;5065270;28;20021;-58
2021/07/26 05:00:17;;;;;;;5.07;3.20;;;;;;;;;;5054824;28;20052;-58
2021/07/26 05:02:42;;;;;;;7.75;3.40;;;;;;;;;;5055156;28;20063;-59
2021/07/26 05:05:07;;;;;;;6.35;3.30;;;;;;;;;;5066371;28;20096;-58
2021/07/26 05:07:33;;;;;;;5.13;2.97;;;;;;;;;;5057068;28;20116;-59
2021/07/26 05:09:58;;;;;;;6.57;2.90;;;;;;;;;;5055183;28;20025;-58
2021/07/26 05:12:23;;;;;;;4.65;2.70;;;;;;;;;;5062707;28;20020;-58
2021/07/26 05:14:51;;;;;;;5.93;3.15;;;;;;;;;;5055380;28;20082;-58
2021/07/26 05:17:22;;;;;;;8.32;3.20;;;;;;;;;;5061896;28;20373;-58
2021/07/26 05:19:47;;;;;;;6.18;3.30;;;;;;;;;;5056642;28;20040;-57
2021/07/26 05:22:13;;;;;;;4.68;2.90;;;;;;;;;;5056028;28;20127;-58
2021/07/26 05:24:38;;;;;;;5.57;3.05;;;;;;;;;;5054762;28;20052;-58
2021/07/26 05:27:04;;;;;;;4.73;2.80;;;;;;;;;;5073386;28;20500;-58
2021/07/26 05:29:30;;;;;;;4.60;2.78;;;;;;;;;;5075888;28;20776;-58
2021/07/26 05:31:56;;;;;;;4.47;2.65;;;;;;;;;;5086041;28;20024;-58
2021/07/26 05:34:22;;;;;;;5.40;2.83;;;;;;;;;;5094906;28;20030;-58
2021/07/26 05:36:47;;;;;;;4.50;3.10;;;;;;;;;;5084358;28;20020;-58
2021/07/26 05:39:12;;;;;;;5.22;3.08;;;;;;;;;;5080353;28;20391;-58
2021/07/26 05:41:37;;;;;;;4.43;2.80;;;;;;;;;;5086245;28;20528;-58
2021/07/26 05:44:03;;;;;;;6.15;2.85;;;;;;;;;;5074733;28;20043;-58
2021/07/26 05:46:28;;;;;;;7.57;3.50;;;;;;;;;;5074428;28;20080;-58
2021/07/26 05:48:53;;;;;;;6.65;3.65;;;;;;;;;;5074586;28;20389;-57
2021/07/26 05:51:18;;;;;;;8.43;3.45;;;;;;;;;;5074268;28;20135;-57
2021/07/26 05:53:44;;;;;;;5.85;3.10;;;;;;;;;;5074566;28;20482;-58
2021/07/26 05:56:11;;;;;;;5.07;2.50;;;;;;;;;;5056611;28;20017;-59
2021/07/26 05:58:42;;;;;;;4.00;2.88;;;;;;;;;;5067286;28;20523;-59
2021/07/26 06:03:35;;;;;;;5.10;3.50;;;;;;;;;;5094116;28;20030;-58
2021/07/26 06:06:04;;;;;;;4.82;3.35;;;;;;;;;;5071830;28;20238;-59
2021/07/26 06:08:29;;;;;;;5.13;3.33;;;;;;;;;;5068139;28;20028;-59
2021/07/26 06:10:54;;;;;;;6.03;3.20;;;;;;;;;;5070314;28;20021;-58
2021/07/26 06:13:20;;;;;;;5.67;3.30;;;;;;;;;;5071608;28;20036;-59
2021/07/26 06:15:45;;;;;;;5.57;3.28;;;;;;;;;;5082975;28;20268;-58
2021/07/26 06:18:10;;;;;;;5.65;3.50;;;;;;;;;;5059129;28;20068;-58
2021/07/26 06:20:35;;;;;;;4.95;3.10;;;;;;;;;;5073754;28;20078;-58
2021/07/26 06:23:01;;;;;;;6.78;3.13;;;;;;;;;;5088000;28;20116;-58
2021/07/26 06:25:26;;;;;;;6.05;3.40;;;;;;;;;;5077965;28;20487;-57
2021/07/26 06:27:53;;;;;;;6.10;3.55;;;;;;;;;;5072781;28;20438;-58
2021/07/26 06:30:19;;;;;;;5.30;3.30;;;;;;;;;;5072509;28;20067;-58
2021/07/26 06:32:44;;;;;;;5.00;2.80;;;;;;;;;;5088898;28;20052;-58
2021/07/26 06:35:10;;;;;;;6.80;3.05;;;;;;;;;;5061086;28;20012;-59
2021/07/26 06:37:35;;;;;;;5.72;2.90;;;;;;;;;;5082620;28;20384;-60
2021/07/26 06:40:00;;;;;;;4.88;3.00;;;;;;;;;;5085979;28;20122;-57
2021/07/26 06:42:25;;;;;;;4.82;2.90;;;;;;;;;;5076068;28;20020;-58
2021/07/26 06:44:51;;;;;;;5.38;2.88;;;;;;;;;;5061955;28;20016;-58
2021/07/26 06:47:16;;;;;;;6.35;3.20;;;;;;;;;;5071719;28;20012;-58
2021/07/26 06:49:42;;;;;;;7.00;2.92;;;;;;;;;;5070032;28;20482;-57
2021/07/26 06:52:07;;;;;;;7.68;3.05;;;;;;;;;;5072222;28;20099;-58
2021/07/26 06:54:32;;;;;;;8.48;3.15;;;;;;;;;;5074913;28;20036;-58
2021/07/26 06:56:57;;;;;;;4.40;2.90;;;;;;;;;;5072638;28;20016;-58
2021/07/26 06:59:23;;;;;;;6.00;2.97;;;;;;;;;;5054592;28;20365;-57
2021/07/26 07:01:48;;;;;;;5.70;2.80;;;;;;;;;;5083217;28;20016;-57
2021/07/26 07:04:13;;;;;;;6.18;3.10;;;;;;;;;;5071680;28;20029;-58
2021/07/26 07:06:40;;;;;;;6.82;3.20;;;;;;;;;;5088826;28;20042;-58
2021/07/26 07:09:05;;;;;;;6.68;3.05;;;;;;;;;;5078238;28;20016;-58
2021/07/26 07:11:30;;;;;;;5.63;3.15;;;;;;;;;;5082494;28;20017;-58
2021/07/26 07:13:57;;;;;;;7.43;3.67;;;;;;;;;;5083759;28;20019;-57
2021/07/26 07:16:23;;;;;;;7.45;3.75;;;;;;;;;;5073577;28;20101;-58
2021/07/26 07:18:49;;;;;;;7.30;3.20;;;;;;;;;;5086707;28;20465;-58
2021/07/26 07:21:16;;;;;;;7.80;3.60;;;;;;;;;;5077772;28;20020;-58
2021/07/26 07:23:41;;;;;;;6.45;3.58;;;;;;;;;;5069419;28;20017;-57
2021/07/26 07:26:06;;;;;;;6.60;3.78;;;;;;;;;;5069614;28;20386;-57
2021/07/26 07:28:31;;;;;;;6.43;3.60;;;;;;;;;;5068265;28;20027;-58
2021/07/26 07:30:57;;;;;;;8.65;3.78;;;;;;;;;;5074497;28;20424;-58
2021/07/26 07:33:22;;;;;;;6.47;3.70;;;;;;;;;;5082414;28;20025;-58
2021/07/26 07:35:47;;;;;;;6.63;3.72;;;;;;;;;;5068622;28;20024;-59
2021/07/26 07:38:13;;;;;;;6.38;3.70;;;;;;;;;;5068456;28;20569;-59
2021/07/26 07:40:38;;;;;;;7.15;3.53;;;;;;;;;;5069301;28;20012;-58
2021/07/26 07:43:04;;;;;;;7.22;3.25;;;;;;;;;;5068542;28;20016;-58
2021/07/26 07:45:30;;;;;;;5.40;3.40;;;;;;;;;;5079022;28;20016;-57
2021/07/26 07:47:56;;;;;;;5.57;3.38;;;;;;;;;;5058516;28;20028;-59
2021/07/26 07:50:21;;;;;;;5.50;3.22;;;;;;;;;;5083979;28;20098;-57
2021/07/26 07:52:47;;;;;;;6.88;3.45;;;;;;;;;;5067665;28;20081;-58
2021/07/26 07:55:12;;;;;;;7.13;3.60;;;;;;;;;;5069190;28;20001;-57
2021/07/26 07:57:37;;;;;;;6.65;3.10;;;;;;;;;;5056393;28;20261;-57
2021/07/26 08:00:03;;;;;;;7.75;3.28;;;;;;;;;;5070452;28;20071;-56
2021/07/26 08:02:29;;;;;;;6.10;2.78;;;;;;;;;;5080510;28;20095;-58
2021/07/26 08:04:54;;;;;;;8.50;3.33;;;;;;;;;;5084577;28;21056;-57
2021/07/26 08:07:19;;;;;;;5.78;3.28;;;;;;;;;;5057259;28;20016;-57
2021/07/26 08:09:44;;;;;;;5.45;2.90;;;;;;;;;;5075381;28;20395;-57
2021/07/26 08:12:10;;;;;;;7.57;3.40;;;;;;;;;;5081241;28;20473;-57
2021/07/26 08:14:35;;;;;;;6.28;3.58;;;;;;;;;;5055594;28;20041;-59
2021/07/26 08:17:01;;;;;;;9.75;3.50;;;;;;;;;;5089042;28;20016;-59
2021/07/26 08:19:26;;;;;;;6.78;3.38;;;;;;;;;;5078855;28;20063;-59
2021/07/26 08:21:52;;;;;;;9.10;3.50;;;;;;;;;;5081332;28;20496;-58
2021/07/26 08:24:17;;;;;;;6.80;3.20;;;;;;;;;;5075245;28;20028;-58
2021/07/26 08:26:42;;;;;;;6.07;3.17;;;;;;;;;;5061637;28;20047;-58
2021/07/26 08:29:08;;;;;;;7.13;3.30;;;;;;;;;;5055167;28;20291;-58
2021/07/26 08:31:33;;;;;;;6.78;3.60;;;;;;;;;;5064729;28;20059;-58
2021/07/26 08:33:58;;;;;;;7.57;3.40;;;;;;;;;;5061554;28;20055;-58
2021/07/26 08:36:23;;;;;;;5.80;3.40;;;;;;;;;;5070677;28;20023;-58
2021/07/26 08:38:49;;;;;;;6.65;3.63;;;;;;;;;;5057774;28;20290;-58
2021/07/26 08:41:15;;;;;;;7.40;3.80;;;;;;;;;;5067773;28;20017;-58
2021/07/26 08:43:40;;;;;;;8.05;4.00;;;;;;;;;;5064966;28;20021;-58
2021/07/26 08:46:07;;;;;;;8.85;4.00;;;;;;;;;;5060110;28;20025;-57
2021/07/26 08:48:33;;;;;;;9.48;3.55;;;;;;;;;;5068984;28;20369;-58
2021/07/26 08:51:01;;;;;;;8.02;4.13;;;;;;;;;;5059425;28;20461;-58
2021/07/26 08:53:26;;;;;;;8.80;4.32;;;;;;;;;;5065431;28;20024;-58
2021/07/26 08:55:51;;;;;;;10.88;3.90;;;;;;;;;;5054704;28;20444;-58
2021/07/26 08:58:17;;;;;;;7.95;3.40;;;;;;;;;;5069589;28;20070;-58
2021/07/26 09:00:42;;;;;;;12.48;3.78;;;;;;;;;;5057995;28;20025;-58
2021/07/26 09:03:08;;;;;;;10.15;3.95;;;;;;;;;;5068476;28;20044;-58
2021/07/26 09:05:33;;;;;;;9.00;3.60;;;;;;;;;;5063834;28;20388;-58
2021/07/26 09:07:59;;;;;;;8.35;3.83;;;;;;;;;;5061219;28;20025;-58
2021/07/26 09:10:25;;;;;;;7.82;4.30;;;;;;;;;;5069584;28;20020;-58
2021/07/26 09:12:51;;;;;;;10.65;4.15;;;;;;;;;;5057542;28;20016;-58
2021/07/26 09:15:32;;;;;;;7.75;3.55;;;;;;;;;;5071835;28;20025;-57
2021/07/26 09:17:59;;;;;;;4.75;3.10;;;;;;;;;;5060574;28;20429;-58
2021/07/26 09:20:28;;;;;;;6.25;3.45;;;;;;;;;;5070353;28;20380;-58
2021/07/26 09:22:53;;;;;;;6.35;3.30;;;;;;;;;;5058293;28;20015;-58
2021/07/26 09:25:30;;;;;;;7.30;3.55;;;;;;;;;;5065235;28;20033;-58
2021/07/26 09:28:01;;;;;;;7.57;3.90;;;;;;;;;;5066581;28;20024;-58
2021/07/26 09:30:31;;;;;;;8.38;4.03;;;;;;;;;;5056237;28;20350;-58
2021/07/26 09:32:56;;;;;;;6.63;4.00;;;;;;;;;;5068086;28;20013;-58
2021/07/26 09:35:22;;;;;;;6.72;4.03;;;;;;;;;;5051774;28;20025;-58
2021/07/26 09:37:55;;;;;;;9.13;4.28;;;;;;;;;;5051118;28;20363;-58
2021/07/26 09:40:21;;;;;;;7.38;3.80;;;;;;;;;;5067294;28;20060;-58
2021/07/26 09:42:47;;;;;;;6.78;3.65;;;;;;;;;;5054879;28;20062;-58
2021/07/26 09:45:38;;;;;;;7.25;4.03;;;;;;;;;;5065310;28;20025;-59
2021/07/26 09:48:07;;;;;;;6.13;3.95;;;;;;;;;;5062464;28;20499;-59
2021/07/26 09:50:33;;;;;;;6.40;3.85;;;;;;;;;;5054486;28;20025;-59
2021/07/26 09:53:05;;;;;;;6.30;4.13;;;;;;;;;;5065317;28;20028;-58
2021/07/26 09:55:30;;;;;;;9.40;4.78;;;;;;;;;;5050923;28;20039;-59
2021/07/26 09:57:59;;;;;;;8.60;4.50;;;;;;;;;;5051090;28;20445;-59
2021/07/26 10:00:25;;;;;;;9.77;4.90;;;;;;;;;;5060616;28;20033;-59
2021/07/26 10:02:51;;;;;;;8.38;4.95;;;;;;;;;;5048664;28;20032;-59
2021/07/26 10:05:17;;;;;;;9.80;4.80;;;;;;;;;;5055522;28;20373;-59
2021/07/26 10:07:43;;;;;;;7.80;4.85;;;;;;;;;;5059102;28;20531;-58
2021/07/26 10:10:08;;;;;;;8.60;5.15;;;;;;;;;;5063756;28;20439;-59
2021/07/26 10:12:36;;;;;;;8.80;5.00;;;;;;;;;;5050364;28;20063;-57
2021/07/26 10:15:02;;;;;;;8.18;4.70;;;;;;;;;;5049640;28;20017;-59
2021/07/26 10:17:28;;;;;;;8.57;5.07;;;;;;;;;;5049068;28;20017;-59
2021/07/26 10:19:53;;;;;;;10.48;5.65;;;;;;;;;;5061501;28;20127;-58
2021/07/26 10:22:21;;;;;;;9.05;5.10;;;;;;;;;;5053933;28;20017;-59
2021/07/26 10:24:51;;;;;;;11.00;5.15;;;;;;;;;;5064243;28;20464;-58
2021/07/26 10:27:30;;;;;;;8.23;5.30;;;;;;;;;;5076093;28;20036;-60
2021/07/26 10:29:56;;;;;;;8.23;4.63;;;;;;;;;;5076190;28;20012;-59
2021/07/26 10:32:37;;;;;;;9.05;5.50;;;;;;;;;;5067619;28;20453;-60
2021/07/26 10:35:06;;;;;;;7.72;4.63;;;;;;;;;;5074636;28;20095;-59
2021/07/26 10:37:37;;;;;;;8.98;5.10;;;;;;;;;;5079053;28;20164;-58
2021/07/26 10:40:24;;;;;;;8.32;4.80;;;;;;;;;;5068872;28;20484;-59
2021/07/26 10:42:53;;;;;;;7.57;5.00;;;;;;;;;;5072251;28;20020;-59
2021/07/26 10:45:33;;;;;;;8.88;5.38;;;;;;;;;;5081639;28;20031;-60
2021/07/26 10:48:17;;;;;;;8.23;5.30;;;;;;;;;;5082632;28;20013;-59
2021/07/26 10:50:44;;;;;;;9.98;5.18;;;;;;;;;;5091121;28;20487;-59
2021/07/26 10:53:10;;;;;;;8.32;5.43;;;;;;;;;;5091093;28;20704;-59
2021/07/26 10:55:54;;;;;;;8.20;5.57;;;;;;;;;;5091198;28;20027;-59
2021/07/26 10:58:42;;;;;;;13.73;5.55;;;;;;;;;;5091135;28;20329;-59
2021/07/26 11:01:22;;;;;;;9.25;5.75;;;;;;;;;;5090840;28;20028;-59
2021/07/26 11:03:48;;;;;;;9.10;5.50;;;;;;;;;;5091194;28;20487;-59
2021/07/26 11:06:33;;;;;;;7.60;5.20;;;;;;;;;;5073185;28;20042;-59
2021/07/26 11:09:16;;;;;;;10.50;5.47;;;;;;;;;;5072852;28;20118;-59
2021/07/26 11:11:42;;;;;;;9.50;5.65;;;;;;;;;;5091271;28;20046;-59
2021/07/26 11:14:09;;;;;;;12.10;6.13;;;;;;;;;;5090429;28;20488;-59
2021/07/26 11:17:00;;;;;;;13.00;6.50;;;;;;;;;;5052623;28;20012;-58
2021/07/26 11:19:31;;;;;;;11.00;5.88;;;;;;;;;;5070310;28;20622;-58
2021/07/26 11:21:57;;;;;;;10.20;5.70;;;;;;;;;;5079955;28;20048;-58
2021/07/26 11:24:45;;;;;;;10.63;5.90;;;;;;;;;;5091106;28;20063;-58
2021/07/26 11:27:12;;;;;;;10.77;6.10;;;;;;;;;;5076768;28;20043;-59
2021/07/26 11:29:37;;;;;;;11.65;6.30;;;;;;;;;;5072715;28;20375;-60
2021/07/26 11:32:03;;;;;;;8.95;5.93;;;;;;;;;;5091515;28;20017;-57
2021/07/26 11:34:28;;;;;;;12.15;6.45;;;;;;;;;;5080133;28;20096;-59
2021/07/26 11:37:01;;;;;;;12.10;7.45;;;;;;;;;;5067139;28;20059;-59
2021/07/26 11:39:26;;;;;;;13.18;7.68;;;;;;;;;;5084561;28;20028;-59
2021/07/26 11:41:51;;;;;;;10.85;7.60;;;;;;;;;;5084254;28;20078;-59
2021/07/26 11:44:27;;;;;;;9.63;7.03;;;;;;;;;;5083868;28;20472;-59
2021/07/26 11:46:52;;;;;;;12.50;7.93;;;;;;;;;;5080965;28;20021;-59
2021/07/26 11:49:18;;;;;;;14.15;7.72;;;;;;;;;;5076101;28;20099;-59
2021/07/26 11:51:43;;;;;;;12.68;7.57;;;;;;;;;;5076336;28;20025;-60
2021/07/26 11:54:08;;;;;;;10.63;7.35;;;;;;;;;;5076960;28;20056;-59
2021/07/26 11:56:35;;;;;;;11.20;6.95;;;;;;;;;;5073547;28;20013;-59
2021/07/26 11:59:19;;;;;;;10.50;6.95;;;;;;;;;;5075303;28;20036;-58
2021/07/26 12:01:55;;;;;;;12.63;6.85;;;;;;;;;;5076482;28;20025;-59
2021/07/26 12:04:20;;;;;;;11.88;6.50;;;;;;;;;;5076043;28;20024;-59
2021/07/26 12:06:53;;;;;;;10.35;6.82;;;;;;;;;;5075745;28;20083;-59
2021/07/26 12:09:18;;;;;;;11.13;6.53;;;;;;;;;;5075908;28;20052;-58
2021/07/26 12:11:44;;;;;;;12.45;6.90;;;;;;;;;;5075301;28;20055;-59
2021/07/26 12:14:25;;;;;;;12.35;6.47;;;;;;;;;;5075812;28;20432;-59
2021/07/26 12:16:57;;;;;;;13.02;6.78;;;;;;;;;;5075792;28;20025;-59
2021/07/26 12:19:23;;;;;;;11.75;7.30;;;;;;;;;;5074636;28;20400;-58
2021/07/26 12:21:48;;;;;;;13.60;7.45;;;;;;;;;;5075602;28;20021;-59
2021/07/26 12:24:13;;;;;;;11.93;6.85;;;;;;;;;;5075383;28;20028;-59
2021/07/26 12:26:41;;;;;;;10.63;6.13;;;;;;;;;;5075433;28;20047;-58
2021/07/26 12:29:10;;;;;;;10.32;6.35;;;;;;;;;;5075738;28;20324;-58
2021/07/26 12:31:36;;;;;;;9.40;5.22;;;;;;;;;;5075622;28;20437;-58
2021/07/26 12:34:22;;;;;;;10.70;5.50;;;;;;;;;;5075755;28;20055;-58
2021/07/26 12:36:48;;;;;;;9.60;6.45;;;;;;;;;;5075869;28;20020;-58
2021/07/26 12:39:15;;;;;;;10.52;6.10;;;;;;;;;;5074983;28;20028;-58
2021/07/26 12:41:41;;;;;;;11.00;6.18;;;;;;;;;;5075489;28;20081;-58
2021/07/26 12:44:12;;;;;;;12.27;6.75;;;;;;;;;;5075009;28;20013;-58
2021/07/26 12:46:38;;;;;;;10.60;6.10;;;;;;;;;;5074197;28;20487;-58
2021/07/26 12:49:03;;;;;;;12.20;6.78;;;;;;;;;;5075311;28;20025;-58
2021/07/26 12:51:29;;;;;;;12.65;6.80;;;;;;;;;;5074934;28;20484;-58
2021/07/26 12:53:54;;;;;;;15.20;7.05;;;;;;;;;;5074892;28;20021;-58
2021/07/26 12:56:19;;;;;;;11.40;6.60;;;;;;;;;;5075355;28;20024;-58
2021/07/26 12:58:45;;;;;;;11.60;6.60;;;;;;;;;;5074862;28;20492;-59
2021/07/26 13:01:10;;;;;;;11.95;7.10;;;;;;;;;;5074769;28;20021;-59
2021/07/26 13:03:35;;;;;;;11.27;6.82;;;;;;;;;;5074819;28;20472;-59
2021/07/26 13:06:00;;;;;;;12.38;7.28;;;;;;;;;;5075225;28;20031;-59
2021/07/26 13:08:26;;;;;;;13.35;7.45;;;;;;;;;;5074671;28;20467;-58
2021/07/26 13:10:51;;;;;;;10.70;6.80;;;;;;;;;;5074535;28;20020;-59
2021/07/26 13:13:18;;;;;;;14.13;6.95;;;;;;;;;;5074473;28;20017;-58
2021/07/26 13:15:43;;;;;;;12.57;7.88;;;;;;;;;;5073557;28;20020;-59
2021/07/26 13:18:11;;;;;;;12.88;8.68;;;;;;;;;;5075191;28;20013;-58
2021/07/26 13:20:36;;;;;;;10.82;7.32;;;;;;;;;;5075019;28;20028;-59
2021/07/26 13:23:01;;;;;;;13.38;7.32;;;;;;;;;;5075275;28;20021;-59
2021/07/26 13:25:27;;;;;;;11.32;7.45;;;;;;;;;;5056876;28;20048;-59
2021/07/26 13:27:52;;;;;;;12.00;8.18;;;;;;;;;;5075183;28;20024;-59
2021/07/26 13:30:18;;;;;;;12.95;7.50;;;;;;;;;;5074938;28;20385;-59
2021/07/26 13:32:43;;;;;;;15.02;8.82;;;;;;;;;;5075000;28;20103;-59
2021/07/26 13:35:09;;;;;;;12.43;7.97;;;;;;;;;;5075210;28;20028;-59
2021/07/26 13:37:34;;;;;;;12.15;8.27;;;;;;;;;;5073851;28;20021;-59
2021/07/26 13:40:00;;;;;;;13.53;7.77;;;;;;;;;;5074916;28;20036;-59
2021/07/26 13:42:25;;;;;;;13.57;7.85;;;;;;;;;;5075102;28;20258;-58
2021/07/26 13:44:51;;;;;;;12.90;7.60;;;;;;;;;;5074957;28;20021;-59
2021/07/26 13:47:16;;;;;;;11.73;7.40;;;;;;;;;;5074732;28;20461;-59
2021/07/26 13:49:41;;;;;;;11.90;7.18;;;;;;;;;;5074772;28;20028;-59
2021/07/26 13:52:07;;;;;;;13.07;7.30;;;;;;;;;;5074873;28;20020;-58
2021/07/26 13:54:34;;;;;;;13.55;7.78;;;;;;;;;;5074525;28;20419;-58
2021/07/26 13:56:59;;;;;;;11.73;7.18;;;;;;;;;;5074177;28;20495;-58
2021/07/26 13:59:24;;;;;;;11.50;6.60;;;;;;;;;;5073193;28;20108;-59
2021/07/26 14:01:50;;;;;;;12.60;7.30;;;;;;;;;;5074183;28;20029;-59
2021/07/26 14:04:15;;;;;;;13.25;7.88;;;;;;;;;;5074362;28;20297;-59
2021/07/26 14:06:40;;;;;;;12.30;7.07;;;;;;;;;;5074182;28;20055;-59
2021/07/26 14:09:05;;;;;;;11.45;7.60;;;;;;;;;;5074726;28;20291;-59
2021/07/26 14:11:31;;;;;;;11.73;6.93;;;;;;;;;;5074135;28;20107;-59
2021/07/26 14:13:56;;;;;;;11.93;7.90;;;;;;;;;;5074084;28;20047;-59
2021/07/26 14:16:21;;;;;;;15.47;8.37;;;;;;;;;;5074404;28;20029;-59
2021/07/26 14:18:47;;;;;;;13.57;7.88;;;;;;;;;;5073974;28;20359;-59
2021/07/26 14:21:12;;;;;;;13.48;7.90;;;;;;;;;;5074324;28;20025;-59
2021/07/26 14:23:37;;;;;;;12.07;7.70;;;;;;;;;;5073775;28;20024;-59
2021/07/26 14:26:03;;;;;;;14.07;7.80;;;;;;;;;;5073810;28;20747;-59
2021/07/26 14:28:29;;;;;;;13.73;8.27;;;;;;;;;;5074299;28;20262;-58
2021/07/26 14:30:54;;;;;;;17.80;8.20;;;;;;;;;;5073981;28;20380;-59
2021/07/26 14:33:20;;;;;;;14.70;8.83;;;;;;;;;;5073739;28;20448;-59
2021/07/26 14:35:45;;;;;;;15.65;9.10;;;;;;;;;;5073837;28;20258;-59
2021/07/26 14:38:10;;;;;;;18.40;9.02;;;;;;;;;;5073493;28;20024;-59
2021/07/26 14:40:36;;;;;;;16.87;8.80;;;;;;;;;;5073935;28;20055;-59